Home   Weather   India   Dharapuram   Past weeks
Flag for India

Past Weather in Dharapuram, Tamil Nadu, India — Yesterday and Last 2 Weeks

Currently: 73 °F. Fog. (Weather station: Coimbatore / Peelamedu, India). See more current weather

Past Weather in Dharapuram — Graph

°F

Dharapuram Temperature Yesterday

Maximum temperature yesterday: 86 °F (at 2:00 pm)
Minimum temperature yesterday: 72 °F (at 6:30 am)
Average temperature yesterday: 76 °F

High & Low Weather Summary for the Past Weeks

 TemperatureHumidityPressure
High88 °F (Nov 21, 2:30 pm)94% (Nov 21, 6:30 am)30.04 "Hg (Nov 21, 6:30 am)
Low68 °F (Nov 21, 6:30 am)43% (Nov 21, 2:30 pm)29.80 "Hg (Nov 21, 2:00 pm)
Average78 °F76%29.90 "Hg
* Reported Nov 21 4:30 am — Dec 6 5:00 am, Dharapuram. Weather by CustomWeather, © 2022

Note: Actual official high and low records may vary slightly from our data, if they occured in-between our weather recording intervals... More about our weather records

Dharapuram Weather History for the Previous 24 Hours

Scroll right to see more
 ConditionsComfort  
Time TempWeatherWind HumidityBarometerVisibility
5:00 am
Tue, Dec 6
72 °FFog.No wind94%29.92 "Hg1 mi
2:00 am72 °FFog.2 mph94%29.92 "Hg2 mi
1:30 am72 °FFog.2 mph94%29.95 "Hg2 mi
12:30 am73 °FFog.3 mph89%29.95 "Hg2 mi
11:30 pm
Mon, Dec 5
73 °FFog.No wind89%29.95 "Hg2 mi
10:30 pm72 °FFog.No wind94%29.98 "Hg2 mi
9:30 pm73 °FFog.No wind89%29.98 "Hg2 mi
8:30 pm73 °FFog.No wind89%29.98 "Hg2 mi
8:00 pm75 °FFog.No wind83%29.95 "Hg2 mi
7:30 pm75 °FFog.No wind83%29.95 "Hg2 mi
7:00 pm77 °FHaze.No wind74%29.92 "Hg2 mi
6:30 pm79 °FHaze.3 mph70%29.92 "Hg2 mi
5:30 pm81 °FHaze.6 mph62%29.89 "Hg2 mi
5:00 pm82 °FPartly sunny.6 mph62%29.89 "Hg2 mi
4:30 pm82 °FPartly sunny.7 mph62%29.89 "Hg2 mi
4:00 pm82 °FBroken clouds.9 mph58%29.89 "Hg2 mi
3:30 pm82 °FBroken clouds.7 mph58%29.89 "Hg2 mi
2:30 pm82 °FBroken clouds.12 mph58%29.89 "Hg2 mi
2:00 pm86 °FScattered clouds.12 mph52%29.89 "Hg2 mi
1:30 pm84 °FScattered clouds.9 mph55%29.92 "Hg2 mi
1:00 pm82 °FBroken clouds.12 mph62%29.92 "Hg3 mi
12:30 pm81 °FBroken clouds.7 mph70%29.95 "Hg3 mi
12:00 pm79 °FBroken clouds.7 mph70%29.98 "Hg3 mi
11:30 am79 °FFog.7 mph74%30.01 "Hg2 mi
10:30 am77 °FFog.7 mph83%30.01 "Hg2 mi
10:00 am77 °FFog.8 mph79%30.01 "Hg2 mi
9:30 am77 °FFog.6 mph79%30.04 "Hg1 mi
9:00 am75 °FFog.5 mph83%30.01 "Hg1 mi
8:30 am73 °FFog.3 mph94%30.01 "Hg1 mi
8:00 am73 °FFog.3 mph89%30.01 "Hg1 mi
7:30 am72 °FFog.3 mph94%29.98 "Hg1 mi
7:00 am72 °FFog.2 mph94%29.98 "Hg1 mi
Weather by CustomWeather, © 2022

See weather overview